Language selection

Features

My Weather Profile Weather Topics  | 

Southeastern Grand Banks: Past 24 Hour Conditions

 

St. Anthony Airport

01:30 AM NST 13 December 2019
Disclaimer

This table is a summary of hourly weather conditions for the past 24 hours.
Please note that these observations might not always be representative of weather conditions over their associated marine area.

Date / Time
(NST)
Wind(knots) Conditions Visibility(km) Pressure(kPa) Air tempC) Relative humidity(%) Dew pointC) Wind Chill
13 December 2019
1:30 W 20 gust 28 Mainly Clear 16 102.2 -16 66 -21 -29
0:30 W 19 gust 24 Partly Cloudy 16 102.1 -15 63 -21 -27
12 December 2019
23:30 W 18 gust 23 Partly Cloudy 16 102.0 -14 59 -21 -26
22:30 WNW 18 gust 26 Light Snow 16 101.9 -14 60 -20 -25
21:30 WNW 16 gust 24 Mostly Cloudy 16 101.8 -14 52 -21 -24
20:30 W 11 gust 17 Cloudy 16 101.7 -12 52 -20 -21
19:30 WNW 11 Cloudy 16 101.6 -12 54 -20 -20
18:30 NW 10 Cloudy 16 101.5 -12 53 -20 -20
17:30 W 6 Cloudy 16 101.5 -12 66 -17 -18
16:30 WSW 9 Cloudy 16 101.5 -12 68 -17 -20
15:30 WSW 10 gust 15 Sunny 16 101.5 -12 63 -18 -20
14:30 WSW 16 Sunny 16 101.5 -12 56 -19 -22
13:30 WSW 16 gust 21 Mainly Sunny 16 101.5 -12 52 -20 -22
12:30 W 13 gust 18 Sunny 16 101.6 -12 55 -19 -21
11:30 WSW 15 N/A 16 101.6 -12 59 -19 -22
10:30 WSW 12 Sunny 16 101.6 -13 62 -19 -22
9:30 WSW 11 Sunny 16 101.7 -14 63 -19 -23
8:30 W 10 Sunny 16 101.7 -14 67 -19 -23
7:30 WSW 11 Clear 16 101.7 -14 68 -19 -24
6:30 WSW 10 Clear 16 101.7 -14 66 -19 -22
5:30 W 10 gust 15 Clear 16 101.6 -13 62 -19 -21
4:30 W 9 Clear 16 101.6 -13 57 -20 -21
3:30 W 14 gust 19 Clear 16 101.5 -13 53 -20 -22
2:30 W 16 gust 22 Clear 16 101.5 -12 51 -20 -22
1:30 W 16 gust 22 Clear 16 101.5 -12 51 -20 -22

Zoom-in to make a selection

Map of Atlantic - Newfoundland marine weather areas Banquereau - 44139 Blanc-Sablon Airport Cap Whittle Chevery Natashquan Airport Heath Point Îles de la Madeleine Airport Miscou Island Eskasoni (First Nations) Grand Étang Ingonish Beach North Mountain St.Paul Island J.A. Douglas McCurdy Sydney Airport Charlottetown Airport East Point North Cape Argentia Bonavista Burgeo Cape Race Corner Brook Daniel's Harbour Englee Ferolle Point La Scie Port aux Basques Rocky Harbour Sagona Island St. Anthony Airport St. John's Int'l Airport St. Lawrence Stephenville Airport Twillingate Winterland Branch Hill Wreckhouse Grates Cove Pool's Island Marticot Island Long Pond Cartwright Airport Mary's Harbour
Legend:
buoy Buoy
land station Land Station

Atlantic - Newfoundland Area

Another Region

What we are doing

Date modified: